Time;durP1;ratioP1;P1;durP2;ratioP2;P2;SDS_P1;SDS_P2;PMS_P1;PMS_P2;Temp;Humidity;BMP_temperature;BMP_pressure;BME280_temperature;BME280_humidity;BME280_pressure;Samples;Min_cycle;Max_cycle;Signal;HPM_P1;HPM_P2
2022/12/31 00:00:49;;;;;;;8.95;5.47;;;;;;;17.81;46.16;100997.84;20910082;28;20059;-82
2022/12/31 00:10:49;;;;;;;7.95;5.50;;;;;;;17.81;46.08;101000.47;20911871;28;20047;-82
2022/12/31 00:20:49;;;;;;;8.55;5.47;;;;;;;17.81;46.10;101003.09;20915377;28;20082;-81
2022/12/31 00:30:50;;;;;;;7.43;4.82;;;;;;;17.80;46.17;101020.59;20910262;28;20396;-81
2022/12/31 00:40:50;;;;;;;7.45;5.18;;;;;;;17.79;46.04;101024.13;20907928;28;20132;-82
2022/12/31 00:50:52;;;;;;;8.30;5.57;;;;;;;17.80;46.14;101031.06;20904820;28;20052;-81
2022/12/31 01:00:53;;;;;;;7.88;4.95;;;;;;;17.79;46.02;101041.66;20890077;28;20044;-81
2022/12/31 01:21:13;;;;;;;7.35;4.45;;;;;;;17.76;46.13;101038.25;20912028;28;20045;-82
2022/12/31 01:31:17;;;;;;;8.20;5.57;;;;;;;17.77;46.18;101045.19;20909536;28;20064;-81
2022/12/31 01:41:20;;;;;;;6.68;4.68;;;;;;;17.77;46.06;101050.44;20891985;28;20045;-81
2022/12/31 01:51:22;;;;;;;7.47;4.97;;;;;;;17.77;46.06;101053.03;20901006;28;20078;-81
2022/12/31 02:01:28;;;;;;;7.90;4.85;;;;;;;17.77;46.10;101053.03;20895549;28;20282;-82
2022/12/31 02:11:36;;;;;;;6.57;4.85;;;;;;;17.77;46.14;101054.78;20902787;28;20526;-82
2022/12/31 02:22:09;;;;;;;7.03;4.57;;;;;;;17.73;46.20;101059.34;20901776;28;20051;-81
2022/12/31 02:32:16;;;;;;;7.45;4.70;;;;;;;17.74;46.20;101041.88;20900361;28;20044;-83
2022/12/31 02:42:17;;;;;;;7.78;5.15;;;;;;;17.73;46.12;101069.81;20905927;28;20059;-82
2022/12/31 02:52:43;;;;;;;6.20;4.63;;;;;;;17.73;46.29;101064.59;20907521;28;20136;-81
2022/12/31 03:02:45;;;;;;;7.28;4.80;;;;;;;17.74;46.23;101041.88;20888447;28;20371;-81
2022/12/31 03:12:46;;;;;;;7.93;4.90;;;;;;;17.72;46.27;101021.00;20894898;28;20044;-82
2022/12/31 03:22:47;;;;;;;7.47;5.03;;;;;;;17.72;46.16;101018.38;20917742;28;20124;-81
2022/12/31 03:32:49;;;;;;;7.40;4.85;;;;;;;17.72;46.14;101048.97;20910047;28;20120;-82
2022/12/31 03:42:49;;;;;;;6.70;4.60;;;;;;;17.72;46.32;101033.25;20897024;28;20055;-81
2022/12/31 03:52:50;;;;;;;6.95;4.60;;;;;;;17.70;46.30;101020.22;20898161;28;20132;-81
2022/12/31 04:02:50;;;;;;;7.40;4.57;;;;;;;17.71;46.31;101036.78;20904513;28;20894;-81
2022/12/31 04:12:51;;;;;;;6.97;4.38;;;;;;;17.72;46.14;101041.09;20889100;28;20203;-81
2022/12/31 04:22:51;;;;;;;7.07;4.85;;;;;;;17.70;46.24;101041.19;20898753;28;20122;-81
2022/12/31 04:32:52;;;;;;;7.53;4.90;;;;;;;17.69;46.10;101063.06;20913272;28;20120;-81
2022/12/31 04:42:52;;;;;;;7.03;4.53;;;;;;;17.70;46.11;101067.38;20892963;28;20411;-81
2022/12/31 04:52:53;;;;;;;6.20;4.28;;;;;;;17.70;46.22;101084.84;20885834;28;20135;-82
2022/12/31 05:02:53;;;;;;;7.63;4.82;;;;;;;17.71;46.24;101100.50;20913481;28;20067;-81
2022/12/31 05:12:53;;;;;;;7.45;4.70;;;;;;;17.70;46.21;101114.53;20894132;28;20051;-81
2022/12/31 05:22:54;;;;;;;6.72;4.47;;;;;;;17.71;46.04;101107.50;20911493;28;20062;-81
2022/12/31 05:32:56;;;;;;;7.88;4.85;;;;;;;17.68;46.38;101110.28;20900451;28;20136;-81
2022/12/31 05:42:56;;;;;;;7.78;4.95;;;;;;;17.68;46.11;101141.72;20885665;28;20127;-81
2022/12/31 05:52:57;;;;;;;7.57;4.90;;;;;;;17.68;46.29;101139.09;20906951;28;20080;-81
2022/12/31 06:02:57;;;;;;;7.40;4.60;;;;;;;17.68;46.24;101144.34;20906550;28;20049;-81
2022/12/31 06:12:57;;;;;;;8.52;5.20;;;;;;;17.66;46.32;101157.50;20905082;28;20549;-80
2022/12/31 06:22:58;;;;;;;8.02;4.78;;;;;;;17.67;46.16;101140.03;20905257;28;20045;-81
2022/12/31 06:32:59;;;;;;;8.48;4.80;;;;;;;17.66;46.33;101157.50;20888182;28;20037;-81
2022/12/31 06:43:00;;;;;;;7.93;4.95;;;;;;;17.67;46.13;101160.97;20904274;28;20048;-82
2022/12/31 06:53:01;;;;;;;7.68;5.13;;;;;;;17.67;46.19;101174.06;20891296;28;20049;-81
2022/12/31 07:03:35;;;;;;;8.35;5.45;;;;;;;17.67;46.18;101171.47;20905659;28;20477;-81
2022/12/31 07:13:57;;;;;;;7.40;5.18;;;;;;;17.67;46.20;101189.78;20908910;28;20095;-81
2022/12/31 07:23:58;;;;;;;7.97;4.63;;;;;;;17.67;46.23;101208.97;20906793;28;20059;-81
2022/12/31 07:34:09;;;;;;;7.07;4.55;;;;;;;17.67;46.11;101189.78;20904471;28;20771;-81
2022/12/31 07:44:25;;;;;;;9.25;5.35;;;;;;;17.66;46.24;101191.53;20903268;28;20044;-82
2022/12/31 07:54:27;;;;;;;8.43;5.07;;;;;;;17.67;46.14;101214.19;20904639;28;20491;-81
2022/12/31 08:04:49;;;;;;;7.72;5.40;;;;;;;17.67;46.17;101224.69;20904680;28;20037;-81
2022/12/31 08:14:51;;;;;;;8.48;5.13;;;;;;;17.69;46.13;101237.72;20904834;28;20131;-81
2022/12/31 08:25:06;;;;;;;8.88;5.28;;;;;;;17.70;46.17;101234.16;20885387;28;20045;-82
2022/12/31 08:35:20;;;;;;;8.55;5.28;;;;;;;17.69;46.11;101269.97;20882960;28;20067;-81
2022/12/31 08:45:24;;;;;;;9.27;5.35;;;;;;;17.71;46.03;101275.13;20882710;28;20127;-81
2022/12/31 08:55:28;;;;;;;7.47;4.73;;;;;;;17.74;46.19;101291.56;20902182;28;20051;-82
2022/12/31 09:05:40;;;;;;;8.50;5.13;;;;;;;17.77;46.07;101287.94;20899108;28;20411;-82
2022/12/31 09:15:52;;;;;;;8.32;5.25;;;;;;;17.77;46.16;101293.19;20897016;28;20045;-82
2022/12/31 09:26:24;;;;;;;7.95;5.10;;;;;;;17.77;46.03;101274.84;20893767;28;20083;-81
2022/12/31 09:36:37;;;;;;;8.32;5.20;;;;;;;17.76;46.18;101268.75;20885130;28;20060;-82
2022/12/31 09:47:15;;;;;;;8.07;5.27;;;;;;;17.77;46.17;101243.41;20907385;28;20558;-81
2022/12/31 09:57:38;;;;;;;7.97;5.15;;;;;;;17.77;46.09;101219.81;20907442;28;20286;-81
2022/12/31 10:08:02;;;;;;;9.17;5.73;;;;;;;17.80;46.08;101218.81;20886521;28;20049;-81
2022/12/31 10:18:27;;;;;;;8.30;5.28;;;;;;;17.80;46.11;101227.56;20891273;28;20048;-81
2022/12/31 10:29:18;;;;;;;9.15;5.47;;;;;;;17.81;46.05;101220.53;20906496;28;20503;-81
2022/12/31 10:39:46;;;;;;;10.02;6.35;;;;;;;17.82;46.06;101217.00;20853909;28;20048;-82
2022/12/31 10:50:25;;;;;;;8.18;5.30;;;;;;;17.83;46.13;101229.16;20908301;28;20515;-81
2022/12/31 11:00:29;;;;;;;8.50;6.00;;;;;;;17.83;46.16;101219.53;20905461;28;20049;-81
2022/12/31 11:10:54;;;;;;;9.55;5.60;;;;;;;17.82;46.13;101214.38;20901483;28;20460;-82
2022/12/31 11:21:19;;;;;;;9.20;6.00;;;;;;;17.82;46.18;101202.13;20907078;28;20045;-81
2022/12/31 11:31:44;;;;;;;8.20;5.70;;;;;;;17.83;46.14;101205.59;20894399;28;20527;-83
2022/12/31 11:41:53;;;;;;;9.90;5.90;;;;;;;17.82;46.17;101210.00;20915461;28;20550;-82
2022/12/31 11:52:20;;;;;;;9.45;5.95;;;;;;;17.82;46.29;101188.16;20917386;28;20041;-82
2022/12/31 12:02:56;;;;;;;9.20;5.32;;;;;;;17.85;46.19;101201.13;20913883;28;20052;-81
2022/12/31 12:12:58;;;;;;;8.68;5.85;;;;;;;17.85;46.11;101222.94;20918367;28;20044;-81
2022/12/31 12:23:11;;;;;;;10.40;6.40;;;;;;;17.87;46.21;101220.22;20917666;28;20091;-82
2022/12/31 12:33:18;;;;;;;9.57;5.90;;;;;;;17.88;46.04;101217.53;20919460;28;20052;-82
2022/12/31 12:43:28;;;;;;;10.65;6.47;;;;;;;17.91;46.10;101204.28;20910799;28;20079;-81
2022/12/31 12:53:45;;;;;;;9.48;5.90;;;;;;;17.94;45.99;101203.25;20913286;28;20041;-82
2022/12/31 13:04:00;;;;;;;7.97;5.68;;;;;;;17.95;46.05;101191.91;20916715;28;20044;-82
2022/12/31 13:14:25;;;;;;;8.70;5.93;;;;;;;17.95;45.90;101185.81;20906674;28;20048;-82
2022/12/31 13:25:06;;;;;;;8.80;6.10;;;;;;;17.95;45.88;101222.50;20912301;28;20060;-81
2022/12/31 13:35:45;;;;;;;8.85;6.50;;;;;;;17.94;46.25;101219.00;20905053;28;20120;-83
2022/12/31 13:45:57;;;;;;;8.18;5.70;;;;;;;17.93;46.08;101206.81;20893422;28;20053;-82
2022/12/31 13:56:02;;;;;;;8.57;6.07;;;;;;;17.93;46.19;101215.53;20912293;28;20049;-82
2022/12/31 14:06:49;;;;;;;7.47;5.50;;;;;;;17.92;46.14;101232.19;20891726;28;20083;-82
2022/12/31 14:17:04;;;;;;;8.60;5.75;;;;;;;17.92;46.25;101247.06;20876754;28;20116;-82
2022/12/31 14:27:12;;;;;;;8.35;5.68;;;;;;;17.90;46.20;101222.69;20894294;28;20835;-82
2022/12/31 14:37:17;;;;;;;8.70;5.93;;;;;;;17.91;46.19;101251.44;20909838;28;20041;-82
2022/12/31 14:48:02;;;;;;;8.38;5.65;;;;;;;17.91;46.27;101232.25;20885101;28;20063;-81
2022/12/31 14:58:20;;;;;;;9.65;6.05;;;;;;;17.91;46.11;101240.13;20730887;28;20077;-81
2022/12/31 15:08:24;;;;;;;8.25;5.40;;;;;;;17.89;46.35;101229.72;20924649;28;20048;-81
2022/12/31 15:18:44;;;;;;;8.50;5.65;;;;;;;17.88;46.34;101220.16;20922285;28;20041;-81
2022/12/31 15:28:45;;;;;;;7.75;5.68;;;;;;;17.88;46.43;101263.84;20917751;28;20044;-82
2022/12/31 15:38:46;;;;;;;7.95;5.47;;;;;;;17.86;46.36;101245.59;20919318;28;20407;-82
2022/12/31 15:48:56;;;;;;;8.95;5.82;;;;;;;17.86;46.48;101277.03;20919886;28;20080;-81
2022/12/31 15:58:59;;;;;;;8.90;5.90;;;;;;;17.86;46.48;101257.84;20917909;28;20045;-82
2022/12/31 16:09:00;;;;;;;7.90;5.37;;;;;;;17.86;46.46;101242.13;20918702;28;20072;-81
2022/12/31 16:19:01;;;;;;;7.55;5.47;;;;;;;17.85;46.43;101262.22;20915715;28;20052;-82
2022/12/31 16:29:03;;;;;;;7.35;5.60;;;;;;;17.85;46.41;101256.16;20898754;28;20079;-81
2022/12/31 16:39:25;;;;;;;8.52;5.93;;;;;;;17.84;46.45;101241.34;20890967;28;20068;-82
2022/12/31 16:49:29;;;;;;;7.43;5.65;;;;;;;17.84;46.65;101262.31;20917761;28;20052;-82
2022/12/31 16:59:42;;;;;;;8.45;5.70;;;;;;;17.85;46.59;101264.84;20896835;28;20044;-81
2022/12/31 17:09:42;;;;;;;8.60;5.90;;;;;;;17.84;46.54;101252.66;20899761;28;20037;-82
2022/12/31 17:19:46;;;;;;;7.22;5.30;;;;;;;17.83;46.59;101274.53;20916026;28;20045;-81
2022/12/31 17:29:47;;;;;;;7.72;5.68;;;;;;;17.83;46.53;101274.53;20914333;28;20041;-81
2022/12/31 17:39:48;;;;;;;8.68;5.70;;;;;;;17.82;46.55;101282.47;20911563;28;20111;-81
2022/12/31 17:49:49;;;;;;;8.13;5.80;;;;;;;17.82;46.61;101283.34;20909856;28;20064;-82
2022/12/31 17:59:50;;;;;;;8.20;5.82;;;;;;;17.82;46.61;101301.69;20908596;28;20033;-83
2022/12/31 18:09:50;;;;;;;7.88;5.55;;;;;;;17.83;46.74;101284.19;20898483;28;20041;-82
2022/12/31 18:19:50;;;;;;;7.78;5.60;;;;;;;17.82;46.84;101270.25;20907602;28;20037;-83
2022/12/31 18:29:51;;;;;;;9.18;5.72;;;;;;;17.81;46.77;101292.13;20906874;28;20047;-82
2022/12/31 18:39:51;;;;;;;7.82;5.70;;;;;;;17.81;46.64;101294.75;20927608;28;20045;-82
2022/12/31 18:49:52;;;;;;;8.35;5.82;;;;;;;17.81;46.72;101310.47;20919077;28;20143;-82
2022/12/31 18:59:54;;;;;;;9.15;5.88;;;;;;;17.81;46.69;101318.31;20910306;28;20044;-81
2022/12/31 19:09:55;;;;;;;8.50;5.60;;;;;;;17.82;46.69;101319.16;20923543;28;20033;-83
2022/12/31 19:20:00;;;;;;;7.35;5.55;;;;;;;17.81;46.80;101304.38;20919080;28;20044;-81
2022/12/31 19:30:01;;;;;;;7.50;5.50;;;;;;;17.81;46.54;101313.09;20907023;28;20053;-82
2022/12/31 19:40:01;;;;;;;9.52;6.25;;;;;;;17.80;46.62;101319.25;20918148;28;20415;-81
2022/12/31 19:50:01;;;;;;;9.48;6.72;;;;;;;17.79;46.67;101314.91;20904468;28;20067;-81
2022/12/31 20:00:03;;;;;;;10.38;6.78;;;;;;;17.79;46.65;101291.34;20919069;28;20037;-82
2022/12/31 20:10:05;;;;;;;10.05;7.15;;;;;;;17.80;46.69;101289.56;20919875;28;20037;-82
2022/12/31 20:20:06;;;;;;;11.18;7.22;;;;;;;17.80;46.82;101285.19;20911262;28;20041;-82
2022/12/31 20:30:08;;;;;;;11.80;7.90;;;;;;;17.81;46.57;101297.38;20908584;28;20051;-81
2022/12/31 20:40:09;;;;;;;12.65;8.48;;;;;;;17.81;46.50;101297.38;20902680;28;20044;-82
2022/12/31 20:50:10;;;;;;;11.85;8.38;;;;;;;17.81;46.74;101293.88;20916807;28;20059;-82
2022/12/31 21:00:13;;;;;;;13.43;9.00;;;;;;;17.80;46.39;101294.78;20926659;28;20446;-81
2022/12/31 21:10:14;;;;;;;12.95;8.73;;;;;;;17.80;46.67;101284.31;20891083;28;20048;-82
2022/12/31 21:20:14;;;;;;;14.20;9.82;;;;;;;17.79;46.77;101291.34;20895309;28;20041;-82
2022/12/31 21:30:15;;;;;;;15.65;9.77;;;;;;;17.78;46.75;101318.47;20914660;28;20033;-82
2022/12/31 21:40:15;;;;;;;15.73;10.48;;;;;;;17.78;46.50;101323.69;20909325;28;20324;-82
2022/12/31 21:50:16;;;;;;;16.48;11.18;;;;;;;17.77;46.79;101340.34;20917842;28;20056;-82
2022/12/31 22:10:36;;;;;;;16.23;11.05;;;;;;;17.77;46.63;101343.81;20906660;28;20472;-81
2022/12/31 22:20:37;;;;;;;16.92;11.40;;;;;;;17.77;46.54;101341.19;20912035;28;20086;-81
2022/12/31 22:30:38;;;;;;;17.17;11.40;;;;;;;17.77;46.57;101338.59;20909309;28;20465;-82
2022/12/31 22:40:38;;;;;;;18.55;12.32;;;;;;;17.75;46.70;101323.88;20892002;28;20423;-82
2022/12/31 22:50:39;;;;;;;18.63;12.27;;;;;;;17.77;46.70;101314.13;20914470;28;20044;-81
2022/12/31 23:00:40;;;;;;;17.65;11.95;;;;;;;17.77;46.92;101312.38;20895034;28;20084;-81
2022/12/31 23:10:58;;;;;;;19.85;12.88;;;;;;;17.77;46.46;101311.50;20895679;28;20037;-81
2022/12/31 23:31:17;;;;;;;20.10;13.13;;;;;;;17.74;46.58;101312.50;20922548;28;20048;-81
2022/12/31 23:41:19;;;;;;;19.08;12.75;;;;;;;17.73;46.58;101321.28;20901823;28;20075;-81
2022/12/31 23:51:20;;;;;;;21.48;13.98;;;;;;;17.74;46.53;101333.47;20924626;28;20041;-81
